WetterOnline ( https://www.wetteronline.ch )

Wetter aktuell Bremerhaven

Aktuelles Wetter: Bremerhaven (11m)

6-stündlich | Neueste Meldungen
Ortszeit Temperatur Wetter
Mo, 13.07. 2:00 13.2° C wolkig
So, 12.07. 20:00 16.5° C fast wolkenlos
So, 12.07. 14:00 16.8° C fast wolkenlos
So, 12.07. 8:00 13.9° C wolkenlos
So, 12.07. 2:00 13.5° C wolkenlos
Sa, 11.07. 20:00 15.9° C wolkenlos
Sa, 11.07. 14:00 15.7° C bewölkt
Sa, 11.07. 8:00 12.4° C bedeckt
Ortszeit Temperatur Wetter
Mo, 13.07. 2:30 13.1° C wolkig
Mo, 13.07. 2:20 13.1° C wolkig
Mo, 13.07. 2:10 13.0° C wolkig
Mo, 13.07. 2:00 13.2° C wolkig
Mo, 13.07. 1:50 13.2° C wolkig
Mo, 13.07. 1:40 13.3° C wolkig
Mo, 13.07. 1:30 13.6° C wolkig
Mo, 13.07. 1:00 14.1° C bewölkt
Ortszeit Relative Feuchte Sichtweite
Mo, 13.07. 2:00 81% 45 km
So, 12.07. 20:00 69% 45 km
So, 12.07. 14:00 68% 55 km
So, 12.07. 8:00 79% 40 km
So, 12.07. 2:00 85% 50 km
Sa, 11.07. 20:00 67% 45 km
Sa, 11.07. 14:00 72% 50 km
Sa, 11.07. 8:00 91% 35 km
Ortszeit Relative Feuchte Sichtweite
Mo, 13.07. 2:30 84% 40 km
Mo, 13.07. 2:20 84% -
Mo, 13.07. 2:10 84% -
Mo, 13.07. 2:00 81% 45 km
Mo, 13.07. 1:50 81% -
Mo, 13.07. 1:40 80% -
Mo, 13.07. 1:30 82% 50 km
Mo, 13.07. 1:00 82% 40 km
Ortszeit Niederschlagsmenge Niederschlagsart
Mo, 13.07. 2:00 0.0 l/m2 in 6 Std. -
So, 12.07. 20:00 0.0 l/m2 in 12 Std. -
So, 12.07. 14:00 0.0 l/m2 in 6 Std. -
So, 12.07. 8:00 0.1 l/m2 in 12 Std. -
So, 12.07. 2:00 0.1 l/m2 in 6 Std. Regen
Sa, 11.07. 20:00 1 l/m2 in 12 Std. -
Sa, 11.07. 14:00 1 l/m2 in 6 Std. Regen
Sa, 11.07. 8:00 2 l/m2 in 12 Std. Regen
Ortszeit Niederschlagsmenge Niederschlagsart
Mo, 13.07. 2:30 0.0 l/m2 in 1 Std. -
Mo, 13.07. 2:20 keine Meldung -
Mo, 13.07. 2:10 keine Meldung -
Mo, 13.07. 2:00 0.0 l/m2 in 1 Std. -
Mo, 13.07. 1:50 keine Meldung -
Mo, 13.07. 1:40 keine Meldung -
Mo, 13.07. 1:30 0.0 l/m2 in 1 Std. -
Mo, 13.07. 1:00 0.0 l/m2 in 1 Std. -
Ortszeit Stärke Spitze Richtung
km/h Bft. km/h Grad Sektor
Mo, 13.07. 2:00 7 2 22 200° S
So, 12.07. 20:00 18 3 32 320° NW
So, 12.07. 14:00 20 4 28 330° NW
So, 12.07. 8:00 15 3 22 260° W
So, 12.07. 2:00 13 3 30 270° W
Sa, 11.07. 20:00 22 4 35 320° NW
Sa, 11.07. 14:00 26 4 39 330° NW
Sa, 11.07. 8:00 18 3 32 240° SW
Ortszeit Stärke Spitze Richtung
km/h Bft. km/h Grad Sektor
Mo, 13.07. 2:30 4 1 7 190° S
Mo, 13.07. 2:20 4 1 - 190° S
Mo, 13.07. 2:10 6 1 - 180° S
Mo, 13.07. 2:00 7 2 11 200° S
Mo, 13.07. 1:50 7 2 - 200° S
Mo, 13.07. 1:40 7 2 - 200° S
Mo, 13.07. 1:30 6 1 7 210° SW
Mo, 13.07. 1:00 6 1 7 180° S
Ortszeit Untergrenze Bedeckung Gattung
total tief tief mittel hoch
Mo, 13.07. 2:00 7200 m 8/8 0/8 - - -
So, 12.07. 20:00 10500 m 2/8 0/8 - - -
So, 12.07. 14:00 1110 m 1/8 1/8 - - -
So, 12.07. 8:00 - 0/8 0/8 - - -
So, 12.07. 2:00 - 0/8 0/8 - - -
Sa, 11.07. 20:00 - 0/8 0/8 - - -
Sa, 11.07. 14:00 930 m 7/8 7/8 - - -
Sa, 11.07. 8:00 1800 m 8/8 8/8 - - -
Ortszeit Bedeckungsgrad in Achtel und Wolkenuntergrenze
Mo, 13.07. 2:30 2(6900m) 8(10500m)
Mo, 13.07. 2:20 2(6900m) 8(10500m)
Mo, 13.07. 2:10 2(7200m) 8(10500m)
Mo, 13.07. 2:00 2(7200m) 8(10500m)
Mo, 13.07. 1:50 2(7200m) 8(10500m)
Mo, 13.07. 1:40 1(7200m) 8(10500m)
Mo, 13.07. 1:30 1(6900m) 8(10500m)
Mo, 13.07. 1:00 6(6900m) 8(10500m)
Ortszeit Luftdruck NN (hPa) Tendenz (hPa in 3 Std.)
Mo, 13.07. 2:00 1027 - 0,8
So, 12.07. 20:00 1028 - 0,8
So, 12.07. 14:00 1029 + 0,1
So, 12.07. 8:00 1027 + 0,9
So, 12.07. 2:00 1026 + 0,4
Sa, 11.07. 20:00 1025 + 0,7
Sa, 11.07. 14:00 1024 + 0,9
Sa, 11.07. 8:00 1021 + 1,4
Ortszeit Luftdruck NN (hPa) Tendenz (hPa in 3 Std.)
Mo, 13.07. 2:30 1027 - 0,8
Mo, 13.07. 2:20 1027 keine Meldung
Mo, 13.07. 2:10 1027 keine Meldung
Mo, 13.07. 2:00 1027 - 0,8
Mo, 13.07. 1:50 1027 keine Meldung
Mo, 13.07. 1:40 1027 keine Meldung
Mo, 13.07. 1:30 1027 - 0,7
Mo, 13.07. 1:00 1027 - 0,6
Ortszeit Schneehöhe (cm)
Mo, 13.07. 2:00 -
So, 12.07. 20:00 -
So, 12.07. 14:00 -
So, 12.07. 8:00 -
So, 12.07. 2:00 -
Sa, 11.07. 20:00 -
Sa, 11.07. 14:00 -
Sa, 11.07. 8:00 -
Ortszeit Schneehöhe (cm)
Mo, 13.07. 2:30 -
Mo, 13.07. 2:20 -
Mo, 13.07. 2:10 -
Mo, 13.07. 2:00 -
Mo, 13.07. 1:50 -
Mo, 13.07. 1:40 -
Mo, 13.07. 1:30 -
Mo, 13.07. 1:00 -
Link zu dieser Seite / Seite empfehlen

Das Wetter in ...